Fairplay, CO

8:36 PM MDT on August 28, 2014 (GMT -0600)
The Highlands | Change Station
CLOSE
Current Station
Personal Weather Station
Location: Breckenridge, CO
Elevation: 9734 ft
Nearby Weather Stations

Elev 9734 ft 39.50 °N, 106.04 °W | Updated 4 minutes ago

Partly Cloudy
Partly Cloudy
43.8 °F
Feels Like 44 °F
N
0.0
Wind Variable Wind from North
Gusts 2.0 mph

Today
High -- | Low -- °F
--% Chance of Precip.
Yesterday
High -- | Low -- °F
Precip. -- in
6:29 AM 7:40 PM
Waxing Crescent, 11% visible
Pressure 30.09 in
Visibility 10.0 miles
Clouds Few 6000 ft
Windchill 44 °F
Dew Point 39 °F
Humidity 83%
Rainfall 0.07 in
Snow Depth 0 in , 0 in , 1 in
UV 0 out of 12
Pollen 8.30 out of 12
Air Quality Not available.
Flu Activity Not available.
METAR KLXV 290153Z AUTO 36007KT 10SM FEW060 07/04 A3043 RMK AO2 RAB05E15 SLP189 P0000 T00720039

More Conditions Fewer Conditions

Pressure 30.09 in
Visibility 10.0 miles
Clouds Few 6000 ft
Windchill 44 °F
Dew Point 39 °F
Humidity 83%
Rainfall 0.07 in
Snow Depth 0 in , 0 in , 1 in
UV 0 out of 12
Pollen 8.30 out of 12
Air Quality Not available.
Flu Activity Not available.
METAR KLXV 290153Z AUTO 36007KT 10SM FEW060 07/04 A3043 RMK AO2 RAB05E15 SLP189 P0000 T00720039

More Conditions Fewer Conditions

10-Day Weather Forecast

Almanac

Astronomy

Aug. 28, 2014 Rise Set
Actual Time 6:29 AM MDT 7:40 PM MDT
Civil Twilight 6:01 AM MDT 8:08 PM MDT
Nautical Twilight 5:28 AM MDT 8:41 PM MDT
Astronomical Twilight 4:53 AM MDT 9:15 PM MDT
Moon 9:22 AM MDT (8/28) 9:07 PM MDT (8/28)
Length of Visible Light 14h 06m
Length of Day
13h 11m
Tomorrow will be 2m 26s shorter.
Waxing Crescent, 11% of the Moon is Illuminated
Today
Waxing Crescent
Sep 2
First Quarter
Sep 8
Full
Sep 15
Last Quarter
Sep 24
New

Today's Extremes

State Highs State Lows

Community

WunderPhotos

Upload Photos

1,748,134 photos uploaded!

Nearby

Snow Depth

Station Depth Elevation
Buckskin Joe 0 in 11150 ft
Hoosier Pass 0 in 11400 ft
Rough And Tumble 1 in 10360 ft
Michigan Creek 0 in 10600 ft
Copper Mountain 0 in 10500 ft

Earthquake Activity

City Distance Mag. Time & Date
No recent earthquake activity has been reported nearby.
Minimum magnitude displayed is 2.5.

Coastal Water Temperatures

Place Temperature
No Stations Reporting

Nearby Weather Stations